sensor_id;sensor_type;location;lat;lon;timestamp;pressure;altitude;pressure_sealevel;temperature;humidity
63115;BME280;49208;50.874;6.466;2022-12-29T08:53:25;99277.25;;;11.65;74.86
63115;BME280;49208;50.874;6.466;2022-12-29T08:56:00;99272.25;;;12.34;70.09
63115;BME280;49208;50.874;6.466;2022-12-29T08:58:26;99292.81;;;12.89;67.32
63115;BME280;49208;50.874;6.466;2022-12-29T09:00:56;99291.13;;;13.30;64.64
63115;BME280;49208;50.874;6.466;2022-12-29T09:03:22;99297.75;;;13.51;63.96
63115;BME280;49208;50.874;6.466;2022-12-29T09:05:50;99303.81;;;13.26;63.44
63115;BME280;49208;50.874;6.466;2022-12-29T09:08:16;99291.19;;;13.01;64.09
63115;BME280;49208;50.874;6.466;2022-12-29T09:10:42;99295.50;;;12.89;63.63
63115;BME280;49208;50.874;6.466;2022-12-29T09:13:07;99310.94;;;12.84;64.56
63115;BME280;49208;50.874;6.466;2022-12-29T09:15:32;99308.94;;;12.88;64.73
63115;BME280;49208;50.874;6.466;2022-12-29T09:17:58;99306.72;;;12.94;64.89
63115;BME280;49208;50.874;6.466;2022-12-29T09:20:23;99328.13;;;13.22;63.68
63115;BME280;49208;50.874;6.466;2022-12-29T09:22:49;99321.75;;;13.24;63.10
63115;BME280;49208;50.874;6.466;2022-12-29T09:25:14;99331.88;;;13.33;62.64
63115;BME280;49208;50.874;6.466;2022-12-29T09:27:40;99332.25;;;13.27;62.74
63115;BME280;49208;50.874;6.466;2022-12-29T09:30:09;99319.19;;;13.23;62.09
63115;BME280;49208;50.874;6.466;2022-12-29T09:32:35;99321.06;;;12.79;63.83
63115;BME280;49208;50.874;6.466;2022-12-29T09:35:01;99327.84;;;12.56;64.19
63115;BME280;49208;50.874;6.466;2022-12-29T09:37:26;99322.38;;;12.29;64.33
63115;BME280;49208;50.874;6.466;2022-12-29T09:39:52;99319.50;;;12.32;66.10
63115;BME280;49208;50.874;6.466;2022-12-29T09:44:55;99333.44;;;12.23;65.37
63115;BME280;49208;50.874;6.466;2022-12-29T09:47:25;99335.50;;;12.18;66.28
63115;BME280;49208;50.874;6.466;2022-12-29T09:49:56;99330.91;;;12.05;66.53
63115;BME280;49208;50.874;6.466;2022-12-29T09:52:28;99330.91;;;12.05;66.46
63115;BME280;49208;50.874;6.466;2022-12-29T09:57:29;99333.91;;;11.69;65.84
63115;BME280;49208;50.874;6.466;2022-12-29T10:00:11;99324.44;;;11.63;66.60
63115;BME280;49208;50.874;6.466;2022-12-29T10:02:41;99343.03;;;11.49;67.15
63115;BME280;49208;50.874;6.466;2022-12-29T10:05:38;99349.31;;;11.48;67.17
63115;BME280;49208;50.874;6.466;2022-12-29T10:11:20;99347.94;;;11.57;66.60
63115;BME280;49208;50.874;6.466;2022-12-29T10:16:37;99340.09;;;11.53;66.75
63115;BME280;49208;50.874;6.466;2022-12-29T10:24:38;99337.28;;;11.57;67.71
63115;BME280;49208;50.874;6.466;2022-12-29T10:27:07;99343.88;;;11.49;66.74
63115;BME280;49208;50.874;6.466;2022-12-29T10:29:38;99347.09;;;11.56;67.44
63115;BME280;49208;50.874;6.466;2022-12-29T10:32:14;99341.28;;;11.64;66.81
63115;BME280;49208;50.874;6.466;2022-12-29T10:34:46;99343.88;;;11.65;66.92
63115;BME280;49208;50.874;6.466;2022-12-29T10:37:29;99340.84;;;11.71;67.15
63115;BME280;49208;50.874;6.466;2022-12-29T10:39:56;99359.16;;;11.78;67.63
63115;BME280;49208;50.874;6.466;2022-12-29T10:42:26;99364.06;;;11.85;67.08
63115;BME280;49208;50.874;6.466;2022-12-29T10:44:54;99354.31;;;11.84;66.05
63115;BME280;49208;50.874;6.466;2022-12-29T10:47:27;99353.22;;;11.88;66.12
63115;BME280;49208;50.874;6.466;2022-12-29T10:49:55;99359.94;;;11.96;66.81
63115;BME280;49208;50.874;6.466;2022-12-29T10:52:24;99354.06;;;11.89;65.84
63115;BME280;49208;50.874;6.466;2022-12-29T10:55:36;99362.69;;;11.94;65.63
63115;BME280;49208;50.874;6.466;2022-12-29T10:58:06;99368.94;;;11.93;65.57
63115;BME280;49208;50.874;6.466;2022-12-29T11:00:33;99367.59;;;12.02;64.44
63115;BME280;49208;50.874;6.466;2022-12-29T11:08:12;99387.09;;;12.02;65.14
63115;BME280;49208;50.874;6.466;2022-12-29T11:10:39;99388.44;;;12.09;64.86
63115;BME280;49208;50.874;6.466;2022-12-29T11:13:18;99391.88;;;12.11;64.09
63115;BME280;49208;50.874;6.466;2022-12-29T11:15:50;99399.72;;;12.15;65.10
63115;BME280;49208;50.874;6.466;2022-12-29T11:18:25;99400.66;;;12.13;64.60
63115;BME280;49208;50.874;6.466;2022-12-29T11:20:57;99409.28;;;12.03;64.69
63115;BME280;49208;50.874;6.466;2022-12-29T11:23:42;99409.28;;;12.03;64.61
63115;BME280;49208;50.874;6.466;2022-12-29T11:26:22;99428.31;;;11.97;65.68
63115;BME280;49208;50.874;6.466;2022-12-29T11:29:15;99425.06;;;11.91;65.51
63115;BME280;49208;50.874;6.466;2022-12-29T11:31:50;99441.81;;;11.78;65.24
63115;BME280;49208;50.874;6.466;2022-12-29T11:34:18;99426.34;;;11.68;65.18
63115;BME280;49208;50.874;6.466;2022-12-29T11:36:43;99431.06;;;11.63;66.31
63115;BME280;49208;50.874;6.466;2022-12-29T11:39:28;99423.94;;;11.48;65.36
63115;BME280;49208;50.874;6.466;2022-12-29T11:41:55;99426.44;;;11.35;66.71
63115;BME280;49208;50.874;6.466;2022-12-29T11:44:20;99427.09;;;11.23;66.74
63115;BME280;49208;50.874;6.466;2022-12-29T11:46:49;99435.25;;;11.20;66.76
63115;BME280;49208;50.874;6.466;2022-12-29T11:49:22;99448.13;;;11.11;67.05
63115;BME280;49208;50.874;6.466;2022-12-29T11:51:49;99449.22;;;11.07;67.99
63115;BME280;49208;50.874;6.466;2022-12-29T11:54:25;99452.13;;;11.03;68.08
63115;BME280;49208;50.874;6.466;2022-12-29T11:56:53;99456.22;;;10.92;69.19
63115;BME280;49208;50.874;6.466;2022-12-29T12:01:56;99437.13;;;10.84;69.34
63115;BME280;49208;50.874;6.466;2022-12-29T12:04:26;99459.53;;;10.80;70.13
63115;BME280;49208;50.874;6.466;2022-12-29T12:07:20;99461.16;;;10.83;69.67
63115;BME280;49208;50.874;6.466;2022-12-29T12:09:58;99459.41;;;10.99;69.42
63115;BME280;49208;50.874;6.466;2022-12-29T12:13:01;99449.94;;;11.11;69.22
63115;BME280;49208;50.874;6.466;2022-12-29T12:20:49;99457.97;;;11.59;70.72
63115;BME280;49208;50.874;6.466;2022-12-29T12:26:15;99468.50;;;11.93;67.30
63115;BME280;49208;50.874;6.466;2022-12-29T12:28:54;99470.91;;;11.98;66.50
63115;BME280;49208;50.874;6.466;2022-12-29T12:33:49;99474.16;;;12.03;65.66
63115;BME280;49208;50.874;6.466;2022-12-29T12:39:35;99473.22;;;12.20;65.42
63115;BME280;49208;50.874;6.466;2022-12-29T12:42:19;99468.22;;;12.14;65.74
63115;BME280;49208;50.874;6.466;2022-12-29T12:56:05;99480.19;;;11.75;65.03
63115;BME280;49208;50.874;6.466;2022-12-29T12:59:33;99472.75;;;11.48;65.43
63115;BME280;49208;50.874;6.466;2022-12-29T13:02:11;99482.47;;;11.16;67.38
63115;BME280;49208;50.874;6.466;2022-12-29T13:05:09;99482.28;;;11.03;68.13
63115;BME280;49208;50.874;6.466;2022-12-29T13:20:36;99490.63;;;10.45;72.24
63115;BME280;49208;50.874;6.466;2022-12-29T13:25:44;99509.72;;;10.36;73.58
63115;BME280;49208;50.874;6.466;2022-12-29T13:30:57;99497.81;;;10.43;71.07
63115;BME280;49208;50.874;6.466;2022-12-29T13:33:44;99505.88;;;10.41;71.04
63115;BME280;49208;50.874;6.466;2022-12-29T13:39:10;99516.13;;;10.49;70.71
63115;BME280;49208;50.874;6.466;2022-12-29T13:41:56;99512.06;;;10.42;68.65
63115;BME280;49208;50.874;6.466;2022-12-29T13:44:28;99507.91;;;10.36;68.75
63115;BME280;49208;50.874;6.466;2022-12-29T13:46:59;99507.38;;;10.29;68.24
63115;BME280;49208;50.874;6.466;2022-12-29T13:49:27;99518.16;;;10.25;69.57
63115;BME280;49208;50.874;6.466;2022-12-29T13:51:58;99517.63;;;10.18;70.20
63115;BME280;49208;50.874;6.466;2022-12-29T13:54:41;99529.22;;;10.17;70.48
63115;BME280;49208;50.874;6.466;2022-12-29T13:57:38;99521.22;;;10.17;71.10
63115;BME280;49208;50.874;6.466;2022-12-29T14:07:43;99537.25;;;10.16;70.29
63115;BME280;49208;50.874;6.466;2022-12-29T14:10:35;99548.13;;;10.11;71.09
63115;BME280;49208;50.874;6.466;2022-12-29T14:13:22;99549.25;;;10.05;70.62
63115;BME280;49208;50.874;6.466;2022-12-29T14:15:54;99547.56;;;10.04;69.61
63115;BME280;49208;50.874;6.466;2022-12-29T14:18:22;99550.34;;;10.01;69.01
63115;BME280;49208;50.874;6.466;2022-12-29T14:28:38;99554.59;;;9.86;68.45
63115;BME280;49208;50.874;6.466;2022-12-29T14:33:32;99558.41;;;9.81;69.04
63115;BME280;49208;50.874;6.466;2022-12-29T14:36:19;99554.94;;;9.79;70.87
63115;BME280;49208;50.874;6.466;2022-12-29T14:38:46;99560.50;;;9.74;72.41
63115;BME280;49208;50.874;6.466;2022-12-29T14:41:18;99557.81;;;9.74;73.76
63115;BME280;49208;50.874;6.466;2022-12-29T14:43:57;99563.50;;;9.66;74.41
63115;BME280;49208;50.874;6.466;2022-12-29T14:46:24;99564.50;;;9.64;73.69
63115;BME280;49208;50.874;6.466;2022-12-29T14:48:55;99562.06;;;9.59;74.15
63115;BME280;49208;50.874;6.466;2022-12-29T14:51:40;99562.13;;;9.58;73.76
63115;BME280;49208;50.874;6.466;2022-12-29T14:57:02;99566.91;;;9.49;74.78
63115;BME280;49208;50.874;6.466;2022-12-29T14:59:29;99561.81;;;9.45;74.29
63115;BME280;49208;50.874;6.466;2022-12-29T15:01:57;99561.88;;;9.43;74.17
63115;BME280;49208;50.874;6.466;2022-12-29T15:04:27;99572.66;;;9.40;74.17
63115;BME280;49208;50.874;6.466;2022-12-29T15:06:55;99574.59;;;9.37;74.90
63115;BME280;49208;50.874;6.466;2022-12-29T15:09:28;99579.97;;;9.35;75.57
63115;BME280;49208;50.874;6.466;2022-12-29T15:14:59;99581.22;;;9.26;75.50
63115;BME280;49208;50.874;6.466;2022-12-29T15:17:32;99576.13;;;9.22;75.93
63115;BME280;49208;50.874;6.466;2022-12-29T15:20:21;99577.25;;;9.16;74.91
63115;BME280;49208;50.874;6.466;2022-12-29T15:22:58;99587.13;;;9.13;75.77
63115;BME280;49208;50.874;6.466;2022-12-29T15:25:26;99585.44;;;9.12;76.73
63115;BME280;49208;50.874;6.466;2022-12-29T15:27:55;99584.69;;;9.08;76.19
63115;BME280;49208;50.874;6.466;2022-12-29T15:30:22;99583.09;;;9.04;76.58
63115;BME280;49208;50.874;6.466;2022-12-29T15:32:49;99579.69;;;9.00;76.36
63115;BME280;49208;50.874;6.466;2022-12-29T15:35:33;99583.50;;;8.95;75.82
63115;BME280;49208;50.874;6.466;2022-12-29T15:38:19;99578.72;;;8.82;76.26
63115;BME280;49208;50.874;6.466;2022-12-29T15:40:46;99579.28;;;8.68;77.11
63115;BME280;49208;50.874;6.466;2022-12-29T15:43:30;99577.13;;;8.56;77.35
63115;BME280;49208;50.874;6.466;2022-12-29T15:45:59;99577.63;;;8.44;77.82
63115;BME280;49208;50.874;6.466;2022-12-29T15:48:25;99583.16;;;8.38;77.13
63115;BME280;49208;50.874;6.466;2022-12-29T15:50:51;99585.25;;;8.29;77.65
63115;BME280;49208;50.874;6.466;2022-12-29T15:53:27;99589.09;;;8.22;77.91
63115;BME280;49208;50.874;6.466;2022-12-29T15:56:01;99591.97;;;8.16;78.38
63115;BME280;49208;50.874;6.466;2022-12-29T15:58:29;99600.19;;;8.10;78.63
63115;BME280;49208;50.874;6.466;2022-12-29T16:01:00;99598.66;;;8.03;78.80
63115;BME280;49208;50.874;6.466;2022-12-29T16:03:30;99604.22;;;7.97;79.39
63115;BME280;49208;50.874;6.466;2022-12-29T16:06:08;99602.53;;;7.94;79.82
63115;BME280;49208;50.874;6.466;2022-12-29T16:08:38;99602.59;;;7.93;79.61
63115;BME280;49208;50.874;6.466;2022-12-29T16:13:56;99600.25;;;7.85;80.45
63115;BME280;49208;50.874;6.466;2022-12-29T16:16:31;99593.34;;;7.81;80.87
63115;BME280;49208;50.874;6.466;2022-12-29T16:19:03;99597.03;;;7.77;81.01
63115;BME280;49208;50.874;6.466;2022-12-29T16:21:34;99599.78;;;7.74;81.60
63115;BME280;49208;50.874;6.466;2022-12-29T16:24:05;99613.22;;;7.69;81.98
63115;BME280;49208;50.874;6.466;2022-12-29T16:26:32;99611.53;;;7.66;82.36
63115;BME280;49208;50.874;6.466;2022-12-29T16:29:00;99610.59;;;7.67;82.73
63115;BME280;49208;50.874;6.466;2022-12-29T16:31:50;99607.16;;;7.65;82.76
63115;BME280;49208;50.874;6.466;2022-12-29T16:37:31;99623.50;;;7.53;83.92
63115;BME280;49208;50.874;6.466;2022-12-29T16:42:49;99619.47;;;7.43;84.23
63115;BME280;49208;50.874;6.466;2022-12-29T16:47:47;99631.09;;;7.39;84.76
63115;BME280;49208;50.874;6.466;2022-12-29T16:50:16;99634.56;;;7.41;84.40
63115;BME280;49208;50.874;6.466;2022-12-29T16:52:48;99639.59;;;7.47;83.93
63115;BME280;49208;50.874;6.466;2022-12-29T16:55:18;99648.34;;;7.49;83.90
63115;BME280;49208;50.874;6.466;2022-12-29T16:57:47;99646.69;;;7.46;84.21
63115;BME280;49208;50.874;6.466;2022-12-29T17:00:25;99658.13;;;7.47;84.55
63115;BME280;49208;50.874;6.466;2022-12-29T17:02:52;99655.44;;;7.48;84.97
63115;BME280;49208;50.874;6.466;2022-12-29T17:05:19;99657.09;;;7.51;84.60
63115;BME280;49208;50.874;6.466;2022-12-29T17:07:46;99656.97;;;7.56;84.58
63115;BME280;49208;50.874;6.466;2022-12-29T17:10:12;99652.41;;;7.59;83.72
63115;BME280;49208;50.874;6.466;2022-12-29T17:12:40;99656.97;;;7.56;83.91
63115;BME280;49208;50.874;6.466;2022-12-29T17:15:14;99660.78;;;7.47;84.09
63115;BME280;49208;50.874;6.466;2022-12-29T17:17:45;99649.50;;;7.42;84.28
63115;BME280;49208;50.874;6.466;2022-12-29T17:20:23;99662.16;;;7.34;84.36
63115;BME280;49208;50.874;6.466;2022-12-29T17:22:50;99669.41;;;7.28;84.94
63115;BME280;49208;50.874;6.466;2022-12-29T17:25:21;99668.72;;;7.22;85.45
63115;BME280;49208;50.874;6.466;2022-12-29T17:28:03;99669.81;;;7.16;85.79
63115;BME280;49208;50.874;6.466;2022-12-29T17:30:31;99671.75;;;7.11;85.66
63115;BME280;49208;50.874;6.466;2022-12-29T17:33:01;99670.09;;;7.07;85.65
63115;BME280;49208;50.874;6.466;2022-12-29T17:35:27;99672.81;;;7.05;85.58
63115;BME280;49208;50.874;6.466;2022-12-29T17:37:53;99676.34;;;7.06;86.03
63115;BME280;49208;50.874;6.466;2022-12-29T17:40:29;99682.44;;;7.08;86.15
63115;BME280;49208;50.874;6.466;2022-12-29T17:42:56;99673.38;;;7.15;85.24
63115;BME280;49208;50.874;6.466;2022-12-29T17:45:27;99691.53;;;7.26;84.48
63115;BME280;49208;50.874;6.466;2022-12-29T17:47:54;99693.81;;;7.37;83.85
63115;BME280;49208;50.874;6.466;2022-12-29T17:50:22;99701.47;;;7.44;83.62
63115;BME280;49208;50.874;6.466;2022-12-29T17:52:53;99716.13;;;7.55;84.30
63115;BME280;49208;50.874;6.466;2022-12-29T17:55:22;99717.88;;;7.56;86.76
63115;BME280;49208;50.874;6.466;2022-12-29T17:57:48;99728.50;;;7.54;87.78
63115;BME280;49208;50.874;6.466;2022-12-29T18:00:22;99741.75;;;7.54;88.78
63115;BME280;49208;50.874;6.466;2022-12-29T18:02:48;99744.50;;;7.51;89.79
63115;BME280;49208;50.874;6.466;2022-12-29T18:05:19;99745.47;;;7.48;90.71
63115;BME280;49208;50.874;6.466;2022-12-29T18:07:44;99743.75;;;7.47;91.07
63115;BME280;49208;50.874;6.466;2022-12-29T18:10:10;99742.06;;;7.45;91.61
63115;BME280;49208;50.874;6.466;2022-12-29T18:12:41;99749.25;;;7.41;91.48
63115;BME280;49208;50.874;6.466;2022-12-29T18:15:19;99742.22;;;7.40;91.41
63115;BME280;49208;50.874;6.466;2022-12-29T18:17:46;99743.25;;;7.36;90.74
63115;BME280;49208;50.874;6.466;2022-12-29T18:20:11;99733.81;;;7.27;90.41
63115;BME280;49208;50.874;6.466;2022-12-29T18:22:36;99734.88;;;7.22;90.64
63115;BME280;49208;50.874;6.466;2022-12-29T18:25:05;99739.56;;;7.14;91.13
63115;BME280;49208;50.874;6.466;2022-12-29T18:27:41;99748.69;;;7.05;92.16
63115;BME280;49208;50.874;6.466;2022-12-29T18:30:07;99756.78;;;7.00;92.21
63115;BME280;49208;50.874;6.466;2022-12-29T18:32:32;99755.16;;;6.96;92.69
63115;BME280;49208;50.874;6.466;2022-12-29T18:34:57;99758.72;;;6.95;93.07
63115;BME280;49208;50.874;6.466;2022-12-29T18:37:23;99753.44;;;6.95;93.92
63115;BME280;49208;50.874;6.466;2022-12-29T18:39:48;99756.00;;;6.97;93.32
63115;BME280;49208;50.874;6.466;2022-12-29T18:42:15;99751.47;;;7.00;92.74
63115;BME280;49208;50.874;6.466;2022-12-29T18:44:42;99755.84;;;7.01;92.49
63115;BME280;49208;50.874;6.466;2022-12-29T18:47:08;99762.84;;;7.04;91.96
63115;BME280;49208;50.874;6.466;2022-12-29T18:49:33;99760.25;;;7.02;91.81
63115;BME280;49208;50.874;6.466;2022-12-29T18:51:58;99756.78;;;7.00;91.15
63115;BME280;49208;50.874;6.466;2022-12-29T18:54:29;99771.06;;;6.95;91.06
63115;BME280;49208;50.874;6.466;2022-12-29T18:56:55;99766.84;;;6.89;91.10
63115;BME280;49208;50.874;6.466;2022-12-29T18:59:21;99766.94;;;6.86;91.10
63115;BME280;49208;50.874;6.466;2022-12-29T19:01:46;99764.50;;;6.78;91.26
63115;BME280;49208;50.874;6.466;2022-12-29T19:04:13;99772.63;;;6.72;91.39
63115;BME280;49208;50.874;6.466;2022-12-29T19:06:38;99773.63;;;6.68;91.48
63115;BME280;49208;50.874;6.466;2022-12-29T19:09:04;99778.28;;;6.60;91.97
63115;BME280;49208;50.874;6.466;2022-12-29T19:11:29;99774.06;;;6.54;91.95
63115;BME280;49208;50.874;6.466;2022-12-29T19:13:55;99772.50;;;6.47;92.50
63115;BME280;49208;50.874;6.466;2022-12-29T19:16:21;99782.41;;;6.40;92.85
63115;BME280;49208;50.874;6.466;2022-12-29T19:18:48;99780.72;;;6.38;93.49
63115;BME280;49208;50.874;6.466;2022-12-29T19:21:13;99787.97;;;6.31;93.68
63115;BME280;49208;50.874;6.466;2022-12-29T19:23:39;99791.63;;;6.27;93.78
63115;BME280;49208;50.874;6.466;2022-12-29T19:26:04;99796.16;;;6.22;93.95
63115;BME280;49208;50.874;6.466;2022-12-29T19:28:30;99802.44;;;6.18;94.26
63115;BME280;49208;50.874;6.466;2022-12-29T19:31:00;99806.13;;;6.12;94.23
63115;BME280;49208;50.874;6.466;2022-12-29T19:33:26;99808.81;;;6.11;94.67
63115;BME280;49208;50.874;6.466;2022-12-29T19:35:52;99805.41;;;6.05;94.79
63115;BME280;49208;50.874;6.466;2022-12-29T19:38:22;99805.53;;;6.01;95.36
63115;BME280;49208;50.874;6.466;2022-12-29T19:40:49;99810.94;;;5.96;95.75
63115;BME280;49208;50.874;6.466;2022-12-29T19:43:15;99812.78;;;5.93;95.81
63115;BME280;49208;50.874;6.466;2022-12-29T19:45:43;99812.88;;;5.90;95.94
63115;BME280;49208;50.874;6.466;2022-12-29T19:48:17;99819.19;;;5.82;96.17
63115;BME280;49208;50.874;6.466;2022-12-29T19:50:43;99814.91;;;5.78;96.43
63115;BME280;49208;50.874;6.466;2022-12-29T19:53:09;99812.25;;;5.78;97.20
63115;BME280;49208;50.874;6.466;2022-12-29T19:55:35;99811.44;;;5.76;96.82
63115;BME280;49208;50.874;6.466;2022-12-29T19:58:00;99811.47;;;5.75;97.21
63115;BME280;49208;50.874;6.466;2022-12-29T20:00:26;99812.38;;;5.74;96.97
63115;BME280;49208;50.874;6.466;2022-12-29T20:02:51;99811.47;;;5.75;97.17
63115;BME280;49208;50.874;6.466;2022-12-29T20:05:16;99810.63;;;5.73;97.14
63115;BME280;49208;50.874;6.466;2022-12-29T20:07:43;99815.03;;;5.74;96.96
63115;BME280;49208;50.874;6.466;2022-12-29T20:10:08;99820.34;;;5.72;96.80
63115;BME280;49208;50.874;6.466;2022-12-29T20:12:34;99821.19;;;5.73;96.62
63115;BME280;49208;50.874;6.466;2022-12-29T20:15:02;99821.16;;;5.74;96.58
63115;BME280;49208;50.874;6.466;2022-12-29T20:17:27;99827.31;;;5.75;96.59
63115;BME280;49208;50.874;6.466;2022-12-29T20:19:53;99824.63;;;5.76;96.38
63115;BME280;49208;50.874;6.466;2022-12-29T20:22:18;99828.94;;;5.80;95.91
63115;BME280;49208;50.874;6.466;2022-12-29T20:24:43;99837.72;;;5.81;95.64
63115;BME280;49208;50.874;6.466;2022-12-29T20:27:11;99842.13;;;5.80;95.46
63115;BME280;49208;50.874;6.466;2022-12-29T20:29:39;99854.50;;;5.80;95.58
63115;BME280;49208;50.874;6.466;2022-12-29T20:32:12;99854.47;;;5.81;95.37
63115;BME280;49208;50.874;6.466;2022-12-29T20:34:40;99857.94;;;5.83;95.37
63115;BME280;49208;50.874;6.466;2022-12-29T20:37:05;99856.94;;;5.87;94.79
63115;BME280;49208;50.874;6.466;2022-12-29T20:39:31;99862.22;;;5.87;94.60
63115;BME280;49208;50.874;6.466;2022-12-29T20:41:57;99863.94;;;5.88;94.50
63115;BME280;49208;50.874;6.466;2022-12-29T20:44:24;99861.28;;;5.90;94.72
63115;BME280;49208;50.874;6.466;2022-12-29T20:46:50;99861.31;;;5.88;94.29
63115;BME280;49208;50.874;6.466;2022-12-29T20:49:15;99860.22;;;5.97;93.35
63115;BME280;49208;50.874;6.466;2022-12-29T20:51:41;99862.00;;;5.97;93.07
63115;BME280;49208;50.874;6.466;2022-12-29T20:54:10;99869.94;;;5.97;93.05
63115;BME280;49208;50.874;6.466;2022-12-29T20:56:36;99867.31;;;5.95;92.75
63115;BME280;49208;50.874;6.466;2022-12-29T20:59:02;99867.38;;;5.92;92.69
63115;BME280;49208;50.874;6.466;2022-12-29T21:01:27;99856.75;;;5.95;92.74
63115;BME280;49208;50.874;6.466;2022-12-29T21:03:53;99866.47;;;5.95;92.06
63115;BME280;49208;50.874;6.466;2022-12-29T21:06:18;99861.19;;;5.95;92.63
63115;BME280;49208;50.874;6.466;2022-12-29T21:08:47;99869.19;;;5.90;92.58
63115;BME280;49208;50.874;6.466;2022-12-29T21:11:13;99867.41;;;5.91;92.49
63115;BME280;49208;50.874;6.466;2022-12-29T21:13:39;99860.34;;;5.91;91.87
63115;BME280;49208;50.874;6.466;2022-12-29T21:16:06;99873.56;;;5.91;92.24
63115;BME280;49208;50.874;6.466;2022-12-29T21:18:33;99877.16;;;5.88;92.24
63115;BME280;49208;50.874;6.466;2022-12-29T21:21:04;99873.66;;;5.88;92.13
63115;BME280;49208;50.874;6.466;2022-12-29T21:23:30;99879.75;;;5.90;92.01
63115;BME280;49208;50.874;6.466;2022-12-29T21:25:56;99874.47;;;5.90;91.81
63115;BME280;49208;50.874;6.466;2022-12-29T21:28:23;99874.50;;;5.88;91.95
63115;BME280;49208;50.874;6.466;2022-12-29T21:30:49;99893.94;;;5.86;92.15
63115;BME280;49208;50.874;6.466;2022-12-29T21:33:19;99887.00;;;5.82;92.45
63115;BME280;49208;50.874;6.466;2022-12-29T21:35:45;99887.91;;;5.81;92.69
63115;BME280;49208;50.874;6.466;2022-12-29T21:38:11;99890.53;;;5.81;92.20
63115;BME280;49208;50.874;6.466;2022-12-29T21:40:38;99880.91;;;5.80;92.21
63115;BME280;49208;50.874;6.466;2022-12-29T21:43:05;99886.19;;;5.80;92.39
63115;BME280;49208;50.874;6.466;2022-12-29T21:45:31;99881.75;;;5.80;92.28
63115;BME280;49208;50.874;6.466;2022-12-29T21:48:05;99883.53;;;5.80;92.25
63115;BME280;49208;50.874;6.466;2022-12-29T21:50:50;99894.16;;;5.77;92.40
63115;BME280;49208;50.874;6.466;2022-12-29T21:53:36;99900.25;;;5.80;92.35
63115;BME280;49208;50.874;6.466;2022-12-29T21:56:07;99890.50;;;5.82;92.37
63115;BME280;49208;50.874;6.466;2022-12-29T21:58:35;99885.31;;;5.79;92.51
63115;BME280;49208;50.874;6.466;2022-12-29T22:01:19;99889.72;;;5.79;92.18
63115;BME280;49208;50.874;6.466;2022-12-29T22:04:04;99892.41;;;5.77;92.37
63115;BME280;49208;50.874;6.466;2022-12-29T22:06:48;99895.94;;;5.76;92.74
63115;BME280;49208;50.874;6.466;2022-12-29T22:09:33;99900.38;;;5.76;92.40
63115;BME280;49208;50.874;6.466;2022-12-29T22:12:17;99907.47;;;5.74;92.25
63115;BME280;49208;50.874;6.466;2022-12-29T22:15:01;99909.34;;;5.69;93.04
63115;BME280;49208;50.874;6.466;2022-12-29T22:17:26;99906.72;;;5.69;92.74
63115;BME280;49208;50.874;6.466;2022-12-29T22:19:51;99896.09;;;5.70;92.58
63115;BME280;49208;50.874;6.466;2022-12-29T22:22:17;99906.63;;;5.72;92.58
63115;BME280;49208;50.874;6.466;2022-12-29T22:24:42;99907.56;;;5.69;92.37
63115;BME280;49208;50.874;6.466;2022-12-29T22:27:08;99904.97;;;5.67;92.52
63115;BME280;49208;50.874;6.466;2022-12-29T22:29:34;99912.88;;;5.67;92.21
63115;BME280;49208;50.874;6.466;2022-12-29T22:31:59;99905.81;;;5.68;92.11
63115;BME280;49208;50.874;6.466;2022-12-29T22:34:24;99910.13;;;5.72;92.19
63115;BME280;49208;50.874;6.466;2022-12-29T22:36:50;99915.44;;;5.71;91.57
63115;BME280;49208;50.874;6.466;2022-12-29T22:39:15;99918.13;;;5.69;92.02
63115;BME280;49208;50.874;6.466;2022-12-29T22:41:41;99925.28;;;5.64;92.26
63115;BME280;49208;50.874;6.466;2022-12-29T22:44:06;99922.63;;;5.64;92.02
63115;BME280;49208;50.874;6.466;2022-12-29T22:46:31;99921.75;;;5.65;92.10
63115;BME280;49208;50.874;6.466;2022-12-29T22:48:57;99922.63;;;5.64;92.25
63115;BME280;49208;50.874;6.466;2022-12-29T22:51:22;99922.63;;;5.65;92.03
63115;BME280;49208;50.874;6.466;2022-12-29T22:53:48;99928.84;;;5.63;91.91
63115;BME280;49208;50.874;6.466;2022-12-29T22:56:14;99926.16;;;5.64;92.18
63115;BME280;49208;50.874;6.466;2022-12-29T22:58:41;99931.41;;;5.66;91.69
